createdAt,value
2022-11-05T00:01:21.206Z,2.35
2022-11-05T00:04:02.305Z,2.70
2022-11-05T00:06:43.794Z,2.42
2022-11-05T00:09:28.864Z,2.42
2022-11-05T00:12:10.446Z,2.67
2022-11-05T00:14:51.907Z,2.42
2022-11-05T00:17:14.605Z,2.60
2022-11-05T00:19:37.647Z,2.35
2022-11-05T00:22:18.815Z,2.50
2022-11-05T00:24:59.647Z,2.60
2022-11-05T00:27:22.147Z,2.30
2022-11-05T00:29:44.893Z,2.42
2022-11-05T00:32:07.419Z,2.17
2022-11-05T00:34:30.117Z,2.38
2022-11-05T00:36:52.958Z,1.90
2022-11-05T00:39:15.499Z,2.05
2022-11-05T00:41:38.180Z,1.80
2022-11-05T00:44:19.610Z,2.63
2022-11-05T00:46:42.280Z,2.20
2022-11-05T00:49:23.713Z,2.20
2022-11-05T00:51:46.328Z,2.22
2022-11-05T00:54:08.842Z,2.30
2022-11-05T00:56:31.328Z,2.53
2022-11-05T00:58:55.403Z,2.38
2022-11-05T01:01:18.161Z,2.42
2022-11-05T01:03:41.020Z,2.50
2022-11-05T01:06:12.996Z,2.45
2022-11-05T01:08:36.056Z,2.70
2022-11-05T01:10:59.725Z,2.38
2022-11-05T01:13:27.620Z,2.50
2022-11-05T01:15:51.011Z,2.30
2022-11-05T01:18:14.337Z,2.50
2022-11-05T01:20:37.174Z,2.60
2022-11-05T01:23:00.102Z,2.42
2022-11-05T01:25:22.623Z,3.00
2022-11-05T01:27:45.590Z,2.70
2022-11-05T01:30:09.474Z,2.22
2022-11-05T01:32:32.079Z,2.45
2022-11-05T01:34:54.589Z,2.47
2022-11-05T01:37:17.274Z,2.35
2022-11-05T01:39:39.811Z,2.55
2022-11-05T01:42:02.353Z,2.57
2022-11-05T01:44:52.951Z,2.75
2022-11-05T01:47:48.112Z,2.50
2022-11-05T01:50:23.006Z,2.72
2022-11-05T01:52:47.087Z,2.75
2022-11-05T01:55:10.365Z,2.97
2022-11-05T01:57:33.350Z,2.35
2022-11-05T01:59:59.917Z,3.20
2022-11-05T02:02:25.308Z,2.63
2022-11-05T02:04:54.775Z,2.95
2022-11-05T02:07:18.106Z,2.93
2022-11-05T02:10:03.336Z,3.50
2022-11-05T02:12:28.964Z,3.40
2022-11-05T02:14:51.451Z,2.92
2022-11-05T02:17:25.295Z,3.85
2022-11-05T02:20:16.493Z,3.90
2022-11-05T02:23:16.452Z,4.03
2022-11-05T02:26:33.435Z,4.22
2022-11-05T02:29:33.504Z,3.60
2022-11-05T02:32:16.335Z,4.50
2022-11-05T02:34:51.013Z,3.88
2022-11-05T02:37:19.199Z,4.35
2022-11-05T02:40:22.721Z,4.22
2022-11-05T02:43:03.541Z,4.55
2022-11-05T02:45:33.239Z,4.32
2022-11-05T02:48:06.406Z,3.73
2022-11-05T02:50:37.314Z,4.28
2022-11-05T02:53:24.911Z,4.20
2022-11-05T02:55:53.912Z,4.05
2022-11-05T02:58:16.623Z,4.10
2022-11-05T03:00:46.987Z,4.40
2022-11-05T03:03:41.058Z,3.88
2022-11-05T03:06:25.401Z,3.92
2022-11-05T03:09:07.719Z,3.67
2022-11-05T03:11:35.202Z,4.25
2022-11-05T03:14:28.338Z,3.60
2022-11-05T03:17:29.327Z,4.28
2022-11-05T03:20:23.892Z,3.97
2022-11-05T03:23:14.563Z,3.72
2022-11-05T03:25:46.751Z,3.80
2022-11-05T03:28:11.047Z,4.13
2022-11-05T03:30:36.717Z,3.95
2022-11-05T03:33:05.010Z,4.25
2022-11-05T03:35:31.684Z,4.53
2022-11-05T03:38:02.550Z,4.30
2022-11-05T03:40:26.361Z,4.40
2022-11-05T03:42:54.659Z,4.30
2022-11-05T03:45:23.585Z,4.55
2022-11-05T03:47:50.464Z,4.22
2022-11-05T03:50:22.140Z,4.18
2022-11-05T03:52:59.199Z,4.30
2022-11-05T03:55:32.324Z,3.92
2022-11-05T03:57:55.938Z,3.80
2022-11-05T04:00:18.626Z,4.40
2022-11-05T04:02:42.247Z,3.70
2022-11-05T04:05:05.525Z,3.83
2022-11-05T04:07:47.007Z,4.03
2022-11-05T04:10:28.944Z,4.00
2022-11-05T04:13:10.105Z,3.80
2022-11-05T04:15:55.747Z,3.85
2022-11-05T04:18:18.418Z,3.80
2022-11-05T04:21:09.988Z,3.83
2022-11-05T04:23:50.997Z,4.18
2022-11-05T04:26:13.682Z,3.63
2022-11-05T04:28:55.228Z,4.10
2022-11-05T04:31:17.778Z,3.40
2022-11-05T04:33:40.232Z,3.60
2022-11-05T04:36:02.699Z,3.75
2022-11-05T04:38:25.170Z,3.53
2022-11-05T04:40:48.223Z,3.42
2022-11-05T04:43:15.291Z,3.13
2022-11-05T04:45:37.891Z,3.47
2022-11-05T04:48:04.722Z,3.70
2022-11-05T04:50:27.567Z,3.35
2022-11-05T04:52:50.127Z,3.28
2022-11-05T04:55:13.057Z,3.70
2022-11-05T04:57:36.199Z,3.50
2022-11-05T04:59:58.817Z,3.70
2022-11-05T05:02:21.728Z,3.17
2022-11-05T05:04:44.894Z,3.45
2022-11-05T05:07:07.601Z,3.67
2022-11-05T05:09:30.276Z,3.58
2022-11-05T05:11:52.986Z,3.20
2022-11-05T05:14:15.610Z,3.78
2022-11-05T05:16:38.202Z,3.58
2022-11-05T05:19:00.778Z,3.50
2022-11-05T05:21:38.644Z,3.63
2022-11-05T05:24:01.482Z,3.30
2022-11-05T05:26:23.965Z,3.08
2022-11-05T05:28:46.830Z,3.30
2022-11-05T05:31:09.482Z,3.20
2022-11-05T05:33:32.039Z,3.38
2022-11-05T05:35:57.958Z,3.30
2022-11-05T05:38:20.570Z,3.88
2022-11-05T05:40:43.281Z,4.22
2022-11-05T05:43:05.847Z,3.97
2022-11-05T05:45:28.452Z,3.38
2022-11-05T05:47:51.049Z,3.28
2022-11-05T05:50:13.684Z,3.80
2022-11-05T05:52:36.207Z,3.05
2022-11-05T05:54:58.763Z,3.20
2022-11-05T05:57:21.307Z,2.80
2022-11-05T05:59:45.178Z,2.88
2022-11-05T06:02:08.002Z,2.85
2022-11-05T06:04:30.512Z,2.88
2022-11-05T06:06:53.135Z,2.80
2022-11-05T06:09:15.918Z,2.80
2022-11-05T06:11:38.498Z,2.80
2022-11-05T06:14:01.153Z,2.67
2022-11-05T06:16:23.844Z,2.60
2022-11-05T06:18:46.802Z,2.70
2022-11-05T06:21:12.061Z,2.67
2022-11-05T06:23:36.100Z,2.80
2022-11-05T06:26:02.991Z,2.65
2022-11-05T06:28:25.518Z,2.70
2022-11-05T06:30:52.002Z,2.73
2022-11-05T06:33:14.558Z,2.63
2022-11-05T06:35:37.234Z,2.85
2022-11-05T06:38:01.375Z,2.80
2022-11-05T06:40:23.978Z,2.80
2022-11-05T06:42:46.612Z,2.47
2022-11-05T06:45:09.660Z,2.90
2022-11-05T06:47:32.279Z,2.42
2022-11-05T06:49:56.941Z,2.78
2022-11-05T06:52:20.427Z,2.78
2022-11-05T06:54:43.959Z,2.60
2022-11-05T06:57:09.660Z,3.03
2022-11-05T06:59:32.544Z,2.80
2022-11-05T07:01:55.111Z,2.60
2022-11-05T07:04:17.898Z,2.80
2022-11-05T07:06:40.390Z,2.70
2022-11-05T07:09:03.024Z,2.80
2022-11-05T07:11:25.647Z,3.00
2022-11-05T07:13:50.213Z,2.45
2022-11-05T07:16:12.770Z,2.50
2022-11-05T07:18:35.526Z,2.42
2022-11-05T07:21:00.139Z,2.25
2022-11-05T07:23:22.927Z,2.38
2022-11-05T07:25:45.545Z,2.22
2022-11-05T07:28:09.108Z,2.33
2022-11-05T07:30:32.937Z,2.40
2022-11-05T07:32:56.941Z,2.38
2022-11-05T07:35:19.532Z,2.20
2022-11-05T07:37:50.095Z,2.60
2022-11-05T07:40:14.531Z,2.42
2022-11-05T07:42:37.016Z,2.65
2022-11-05T07:44:59.576Z,2.20
2022-11-05T07:47:22.038Z,2.83
2022-11-05T07:49:44.666Z,2.35
2022-11-05T07:52:07.113Z,2.50
2022-11-05T07:54:29.735Z,2.20
2022-11-05T07:56:52.599Z,2.15
2022-11-05T07:59:15.344Z,2.30
2022-11-05T08:01:38.157Z,2.30
2022-11-05T08:04:00.981Z,2.42
2022-11-05T08:06:23.562Z,2.17
2022-11-05T08:08:46.115Z,2.58
2022-11-05T08:11:10.607Z,2.40
2022-11-05T08:13:34.142Z,2.28
2022-11-05T08:15:57.685Z,2.50
2022-11-05T08:18:20.274Z,2.75
2022-11-05T08:20:44.466Z,2.60
2022-11-05T08:23:07.120Z,2.80
2022-11-05T08:25:30.062Z,2.38
2022-11-05T08:27:57.760Z,2.20
2022-11-05T08:30:20.314Z,2.45
2022-11-05T08:32:42.948Z,2.63
2022-11-05T08:35:06.204Z,2.65
2022-11-05T08:37:28.901Z,2.30
2022-11-05T08:39:51.474Z,2.38
2022-11-05T08:42:14.384Z,2.65
2022-11-05T08:44:37.036Z,2.75
2022-11-05T08:46:59.705Z,2.70
2022-11-05T08:49:22.260Z,2.70
2022-11-05T08:51:45.468Z,2.40
2022-11-05T08:54:08.003Z,2.65
2022-11-05T08:56:30.581Z,2.45
2022-11-05T08:58:53.280Z,2.72
2022-11-05T09:01:17.548Z,2.50
2022-11-05T09:03:40.213Z,2.40
2022-11-05T09:06:02.788Z,2.60
2022-11-05T09:08:25.335Z,2.50
2022-11-05T09:10:49.949Z,2.55
2022-11-05T09:13:18.221Z,2.20
2022-11-05T09:15:42.557Z,2.60
2022-11-05T09:18:08.450Z,2.38
2022-11-05T09:20:32.323Z,2.58
2022-11-05T09:22:54.821Z,2.50
2022-11-05T09:25:17.523Z,2.65
2022-11-05T09:27:39.975Z,2.60
2022-11-05T09:30:02.628Z,2.90
2022-11-05T09:32:25.486Z,2.90
2022-11-05T09:34:49.034Z,2.45
2022-11-05T09:37:12.011Z,2.72
2022-11-05T09:39:34.632Z,2.67
2022-11-05T09:42:02.654Z,2.85
2022-11-05T09:44:47.659Z,3.08
2022-11-05T09:47:18.632Z,2.67
2022-11-05T09:49:47.821Z,2.90
2022-11-05T09:52:18.463Z,3.00
2022-11-05T09:55:02.945Z,3.20
2022-11-05T09:57:32.491Z,2.95
2022-11-05T09:59:59.110Z,3.30
2022-11-05T10:02:30.414Z,3.15
2022-11-05T10:04:57.577Z,3.40
2022-11-05T10:07:34.314Z,3.15
2022-11-05T10:10:00.444Z,3.40
2022-11-05T10:12:48.772Z,3.63
2022-11-05T10:15:21.464Z,3.40
2022-11-05T10:17:51.375Z,3.28
2022-11-05T10:20:20.529Z,3.33
2022-11-05T10:22:48.303Z,3.50
2022-11-05T10:25:20.027Z,3.40
2022-11-05T10:27:47.932Z,3.53
2022-11-05T10:30:15.064Z,3.60
2022-11-05T10:32:40.177Z,3.47
2022-11-05T10:35:06.343Z,3.38
2022-11-05T10:37:31.929Z,3.50
2022-11-05T10:39:58.283Z,3.50
2022-11-05T10:42:23.961Z,3.80
2022-11-05T10:45:14.171Z,3.70
2022-11-05T10:47:45.064Z,3.40
2022-11-05T10:50:29.600Z,3.45
2022-11-05T10:52:52.104Z,3.97
2022-11-05T10:55:23.069Z,3.40
2022-11-05T10:57:47.772Z,3.50
2022-11-05T11:00:19.989Z,3.47
2022-11-05T11:02:43.811Z,3.80
2022-11-05T11:05:06.578Z,3.92
2022-11-05T11:07:29.248Z,3.58
2022-11-05T11:09:52.701Z,3.55
2022-11-05T11:12:17.014Z,3.35
2022-11-05T11:14:40.051Z,3.78
2022-11-05T11:17:28.996Z,3.42
2022-11-05T11:19:53.548Z,3.90
2022-11-05T11:22:19.781Z,3.53
2022-11-05T11:24:51.956Z,4.10
2022-11-05T11:27:22.377Z,3.70
2022-11-05T11:29:49.874Z,3.60
2022-11-05T11:32:15.715Z,4.22
2022-11-05T11:34:40.619Z,3.80
2022-11-05T11:37:41.774Z,3.88
2022-11-05T11:40:15.256Z,3.65
2022-11-05T11:42:40.726Z,3.67
2022-11-05T11:45:15.348Z,3.85
2022-11-05T11:47:44.518Z,3.45
2022-11-05T11:50:38.495Z,4.03
2022-11-05T11:53:19.875Z,4.07
2022-11-05T11:55:59.007Z,3.63
2022-11-05T11:58:23.457Z,3.58
2022-11-05T12:00:50.995Z,3.50
2022-11-05T12:03:22.512Z,3.60
2022-11-05T12:06:01.293Z,3.95
2022-11-05T12:08:33.164Z,4.28
2022-11-05T12:11:08.095Z,4.43
2022-11-05T12:13:47.341Z,4.25
2022-11-05T12:16:37.818Z,3.95
2022-11-05T12:19:13.003Z,3.67
2022-11-05T12:21:58.913Z,3.67
2022-11-05T12:24:51.330Z,3.83
2022-11-05T12:27:32.682Z,3.92
2022-11-05T12:30:27.845Z,3.65
2022-11-05T12:33:19.617Z,3.63
2022-11-05T12:36:03.621Z,3.40
2022-11-05T12:39:07.088Z,3.65
2022-11-05T12:41:39.134Z,3.25
2022-11-05T12:44:22.920Z,3.70
2022-11-05T12:47:14.323Z,3.28
2022-11-05T12:49:57.709Z,3.63
2022-11-05T12:52:56.683Z,3.15
2022-11-05T12:55:22.464Z,3.35
2022-11-05T12:57:48.163Z,2.92
2022-11-05T13:00:20.583Z,3.13
2022-11-05T13:02:49.140Z,2.70
2022-11-05T13:05:41.283Z,2.70
2022-11-05T13:08:21.696Z,3.15
2022-11-05T13:11:01.113Z,3.05
2022-11-05T13:13:34.615Z,2.58
2022-11-05T13:16:13.219Z,2.80
2022-11-05T13:18:49.640Z,2.60
2022-11-05T13:21:13.269Z,2.80
2022-11-05T13:23:46.063Z,2.55
2022-11-05T13:26:19.826Z,3.00
2022-11-05T13:28:55.642Z,2.60
2022-11-05T13:31:30.342Z,2.72
2022-11-05T13:33:53.950Z,2.88
2022-11-05T13:36:37.955Z,2.97
2022-11-05T13:39:22.334Z,2.58
2022-11-05T13:42:06.659Z,3.00
2022-11-05T13:44:34.986Z,3.20
2022-11-05T13:47:15.733Z,3.20
2022-11-05T13:49:53.285Z,3.63
2022-11-05T13:52:21.751Z,2.85
2022-11-05T13:55:25.519Z,3.05
2022-11-05T13:57:55.255Z,3.10
2022-11-05T14:00:21.006Z,3.00
2022-11-05T14:02:45.268Z,2.58
2022-11-05T14:05:22.143Z,3.00
2022-11-05T14:07:47.186Z,2.75
2022-11-05T14:10:24.558Z,2.80
2022-11-05T14:12:51.177Z,2.92
2022-11-05T14:15:21.757Z,2.95
2022-11-05T14:18:01.831Z,2.97
2022-11-05T14:20:30.381Z,3.25
2022-11-05T14:22:53.363Z,3.25
2022-11-05T14:25:18.656Z,3.70
2022-11-05T14:27:43.976Z,3.72
2022-11-05T14:30:44.902Z,3.95
2022-11-05T14:33:26.815Z,3.30
2022-11-05T14:35:49.591Z,3.42
2022-11-05T14:38:27.091Z,3.10
2022-11-05T14:40:58.193Z,3.10
2022-11-05T14:43:25.492Z,3.08
2022-11-05T14:46:03.267Z,3.30
2022-11-05T14:48:46.598Z,3.35
2022-11-05T14:51:44.235Z,3.10
2022-11-05T14:54:29.433Z,3.60
2022-11-05T14:56:56.751Z,3.40
2022-11-05T14:59:22.155Z,3.22
2022-11-05T15:01:47.806Z,3.30
2022-11-05T15:04:32.994Z,3.65
2022-11-05T15:07:32.037Z,3.50
2022-11-05T15:10:10.295Z,3.17
2022-11-05T15:12:52.151Z,3.25
2022-11-05T15:15:31.622Z,2.95
2022-11-05T15:18:25.650Z,3.20
2022-11-05T15:20:55.407Z,3.08
2022-11-05T15:23:20.950Z,3.00
2022-11-05T15:26:00.317Z,3.05
2022-11-05T15:28:35.772Z,3.65
2022-11-05T15:31:12.139Z,3.60
2022-11-05T15:33:35.032Z,3.35
2022-11-05T15:36:24.011Z,3.78
2022-11-05T15:39:08.125Z,3.08
2022-11-05T15:41:34.601Z,3.10
2022-11-05T15:43:57.531Z,2.95
2022-11-05T15:46:30.899Z,3.80
2022-11-05T15:49:07.045Z,3.30
2022-11-05T15:51:30.171Z,3.17
2022-11-05T15:56:57.548Z,3.50
2022-11-05T15:59:22.306Z,3.05
2022-11-05T16:02:02.032Z,3.40
2022-11-05T16:04:34.955Z,3.35
2022-11-05T16:07:00.625Z,3.00
2022-11-05T16:09:28.705Z,3.40
2022-11-05T16:12:14.849Z,2.80
2022-11-05T16:14:37.770Z,2.80
2022-11-05T16:17:20.410Z,3.00
2022-11-05T16:19:46.284Z,3.42
2022-11-05T16:22:09.121Z,2.80
2022-11-05T16:24:32.027Z,2.85
2022-11-05T16:27:04.003Z,3.08
2022-11-05T16:29:40.729Z,3.22
2022-11-05T16:32:25.422Z,3.25
2022-11-05T16:34:55.258Z,3.03
2022-11-05T16:37:20.922Z,2.80
2022-11-05T16:39:43.776Z,3.10
2022-11-05T16:42:35.765Z,3.33
2022-11-05T16:44:58.805Z,3.13
2022-11-05T16:47:22.989Z,2.88
2022-11-05T16:49:47.186Z,2.92
2022-11-05T16:52:11.887Z,2.75
2022-11-05T16:54:34.606Z,2.80
2022-11-05T16:56:57.342Z,3.30
2022-11-05T16:59:20.498Z,3.10
2022-11-05T17:01:43.752Z,3.47
2022-11-05T17:04:06.896Z,3.20
2022-11-05T17:06:29.761Z,3.45
2022-11-05T17:08:52.697Z,3.15
2022-11-05T17:11:18.272Z,3.10
2022-11-05T17:13:42.550Z,3.38
2022-11-05T17:16:05.516Z,3.25
2022-11-05T17:18:28.663Z,3.38
2022-11-05T17:20:54.850Z,3.70
2022-11-05T17:23:20.449Z,3.67
2022-11-05T17:25:47.012Z,3.20
2022-11-05T17:28:11.193Z,3.00
2022-11-05T17:30:34.616Z,3.70
2022-11-05T17:32:57.635Z,3.20
2022-11-05T17:35:20.906Z,3.40
2022-11-05T17:37:43.908Z,3.10
2022-11-05T17:40:08.985Z,3.35
2022-11-05T17:42:35.526Z,3.40
2022-11-05T17:44:58.637Z,3.50
2022-11-05T17:47:21.757Z,3.38
2022-11-05T17:49:44.792Z,3.33
2022-11-05T17:52:07.847Z,3.40
2022-11-05T17:54:30.768Z,3.58
2022-11-05T17:56:53.493Z,3.38
2022-11-05T17:59:16.235Z,3.70
2022-11-05T18:01:43.447Z,3.53
2022-11-05T18:04:08.941Z,3.65
2022-11-05T18:06:32.269Z,3.40
2022-11-05T18:08:55.003Z,3.35
2022-11-05T18:11:18.194Z,3.78
2022-11-05T18:13:40.914Z,3.70
2022-11-05T18:16:03.876Z,4.10
2022-11-05T18:18:27.315Z,3.88
2022-11-05T18:20:50.468Z,4.00
2022-11-05T18:23:14.406Z,3.95
2022-11-05T18:25:40.592Z,3.97
2022-11-05T18:28:04.001Z,4.47
2022-11-05T18:30:26.730Z,4.50
2022-11-05T18:32:51.303Z,4.22
2022-11-05T18:35:14.688Z,4.60
2022-11-05T18:37:38.980Z,4.80
2022-11-05T18:40:02.660Z,4.35
2022-11-05T18:42:27.300Z,3.90
2022-11-05T18:44:50.174Z,3.95
2022-11-05T18:47:13.414Z,4.57
2022-11-05T18:49:36.745Z,4.45
2022-11-05T18:51:59.665Z,4.13
2022-11-05T18:54:22.701Z,4.20
2022-11-05T18:56:45.819Z,4.57
2022-11-05T18:59:35.207Z,4.07
2022-11-05T19:01:51.866Z,4.00
2022-11-05T19:04:14.993Z,4.22
2022-11-05T19:06:38.552Z,4.03
2022-11-05T19:09:01.965Z,4.38
2022-11-05T19:11:26.903Z,4.05
2022-11-05T19:13:50.142Z,3.92
2022-11-05T19:16:19.382Z,3.97
2022-11-05T19:18:42.718Z,3.83
2022-11-05T19:21:24.399Z,3.75
2022-11-05T19:23:48.390Z,3.80
2022-11-05T19:26:17.321Z,3.60
2022-11-05T19:28:41.319Z,3.63
2022-11-05T19:31:05.364Z,3.65
2022-11-05T19:33:28.336Z,3.58
2022-11-05T19:35:51.479Z,3.90
2022-11-05T19:38:14.815Z,4.50
2022-11-05T19:40:38.679Z,4.70
2022-11-05T19:43:01.498Z,4.35
2022-11-05T19:45:43.387Z,4.78
2022-11-05T19:48:08.030Z,4.50
2022-11-05T19:50:31.108Z,4.85
2022-11-05T19:52:54.095Z,4.70
2022-11-05T19:55:17.007Z,4.47
2022-11-05T19:57:39.964Z,4.50
2022-11-05T20:00:04.350Z,5.15
2022-11-05T20:02:33.862Z,4.47
2022-11-05T20:04:56.539Z,4.53
2022-11-05T20:07:19.552Z,4.80
2022-11-05T20:09:42.502Z,4.90
2022-11-05T20:12:05.570Z,5.38
2022-11-05T20:14:28.344Z,4.95
2022-11-05T20:16:51.254Z,4.57
2022-11-05T20:19:16.993Z,5.28
2022-11-05T20:21:40.811Z,4.78
2022-11-05T20:24:04.321Z,5.05
2022-11-05T20:26:27.719Z,4.85
2022-11-05T20:28:50.730Z,5.20
2022-11-05T20:31:16.834Z,4.80
2022-11-05T20:33:40.879Z,4.75
2022-11-05T20:36:10.153Z,4.80
2022-11-05T20:38:54.562Z,4.40
2022-11-05T20:41:18.012Z,4.70
2022-11-05T20:43:41.418Z,4.18
2022-11-05T20:46:04.942Z,4.53
2022-11-05T20:48:34.882Z,4.63
2022-11-05T20:50:58.367Z,4.53
2022-11-05T20:53:21.391Z,4.80
2022-11-05T20:55:45.971Z,4.40
2022-11-05T20:58:09.247Z,4.15
2022-11-05T21:00:32.347Z,4.60
2022-11-05T21:02:55.342Z,4.60
2022-11-05T21:05:19.370Z,4.78
2022-11-05T21:07:42.797Z,4.15
2022-11-05T21:10:06.712Z,4.70
2022-11-05T21:12:29.755Z,4.97
2022-11-05T21:14:56.108Z,4.97
2022-11-05T21:17:19.032Z,4.70
2022-11-05T21:19:44.935Z,4.63
2022-11-05T21:22:07.876Z,4.68
2022-11-05T21:24:32.493Z,4.53
2022-11-05T21:26:55.445Z,4.97
2022-11-05T21:29:18.900Z,5.30
2022-11-05T21:31:41.933Z,4.70
2022-11-05T21:34:04.744Z,4.60
2022-11-05T21:36:27.604Z,4.80
2022-11-05T21:38:50.636Z,4.70
2022-11-05T21:41:13.843Z,4.82
2022-11-05T21:43:38.588Z,4.63
2022-11-05T21:46:02.803Z,4.63
2022-11-05T21:48:25.581Z,4.70
2022-11-05T21:51:10.394Z,4.63
2022-11-05T21:53:52.133Z,4.75
2022-11-05T21:56:33.243Z,4.70
2022-11-05T21:59:14.964Z,4.30
2022-11-05T22:01:37.899Z,4.95
2022-11-05T22:04:03.210Z,5.20
2022-11-05T22:06:26.206Z,4.68
2022-11-05T22:08:49.186Z,4.53
2022-11-05T22:11:12.112Z,4.80
2022-11-05T22:13:34.809Z,4.40
2022-11-05T22:15:57.663Z,4.93
2022-11-05T22:18:20.444Z,4.90
2022-11-05T22:20:43.464Z,4.72
2022-11-05T22:23:10.918Z,4.68
2022-11-05T22:25:34.232Z,4.80
2022-11-05T22:27:57.061Z,5.15
2022-11-05T22:30:19.759Z,5.05
2022-11-05T22:32:42.737Z,5.07
2022-11-05T22:35:06.332Z,5.15
2022-11-05T22:37:28.997Z,4.88
2022-11-05T22:39:51.911Z,5.63
2022-11-05T22:42:14.775Z,4.95
2022-11-05T22:44:37.910Z,5.40
2022-11-05T22:47:00.522Z,5.38
2022-11-05T22:49:23.468Z,5.95
2022-11-05T22:51:46.693Z,6.10
2022-11-05T22:54:09.491Z,5.55
2022-11-05T22:56:35.266Z,5.85
2022-11-05T22:58:58.302Z,6.10
2022-11-05T23:01:23.011Z,6.05
2022-11-05T23:03:46.824Z,6.10
2022-11-05T23:06:32.897Z,6.28
2022-11-05T23:09:15.759Z,6.18
2022-11-05T23:11:40.655Z,5.65
2022-11-05T23:14:03.191Z,6.20
2022-11-05T23:16:44.090Z,5.97
2022-11-05T23:19:25.085Z,6.40
2022-11-05T23:22:06.182Z,6.57
2022-11-05T23:24:28.671Z,6.07
2022-11-05T23:26:51.159Z,6.18
2022-11-05T23:29:13.767Z,6.50
2022-11-05T23:31:54.603Z,6.50
2022-11-05T23:34:17.302Z,6.22
2022-11-05T23:36:58.754Z,6.28
2022-11-05T23:39:21.466Z,6.30
2022-11-05T23:42:02.327Z,5.82
2022-11-05T23:44:43.687Z,6.35
2022-11-05T23:47:26.114Z,5.93
2022-11-05T23:49:48.622Z,6.45
2022-11-05T23:52:11.114Z,6.70
2022-11-05T23:54:34.669Z,6.43
2022-11-05T23:56:57.094Z,6.10
2022-11-05T23:59:19.671Z,6.20
